createdAt,value
2018-03-02T00:00:49.286Z,-5.01
2018-03-02T00:01:49.216Z,-4.95
2018-03-02T00:02:49.150Z,-4.95
2018-03-02T00:03:49.086Z,-4.91
2018-03-02T00:04:49.019Z,-4.97
2018-03-02T00:05:48.952Z,-5.01
2018-03-02T00:06:48.885Z,-4.93
2018-03-02T00:07:48.817Z,-5.07
2018-03-02T00:08:48.751Z,-5.08
2018-03-02T00:09:48.691Z,-5.11
2018-03-02T00:10:48.617Z,-4.97
2018-03-02T00:11:48.552Z,-4.95
2018-03-02T00:12:48.486Z,-4.98
2018-03-02T00:13:48.416Z,-5.05
2018-03-02T00:14:48.353Z,-5.12
2018-03-02T00:15:48.289Z,-5.00
2018-03-02T00:16:48.219Z,-5.07
2018-03-02T00:17:48.152Z,-5.08
2018-03-02T00:18:48.086Z,-5.12
2018-03-02T00:19:48.028Z,-5.05
2018-03-02T00:20:47.953Z,-5.14
2018-03-02T00:21:47.886Z,-5.07
2018-03-02T00:22:47.820Z,-5.05
2018-03-02T00:23:47.751Z,-5.11
2018-03-02T00:24:47.686Z,-5.11
2018-03-02T00:25:47.620Z,-5.11
2018-03-02T00:26:47.551Z,-5.05
2018-03-02T00:27:47.486Z,-5.12
2018-03-02T00:28:47.422Z,-5.11
2018-03-02T00:29:47.353Z,-5.05
2018-03-02T00:30:47.286Z,-5.12
2018-03-02T00:31:47.222Z,-5.05
2018-03-02T00:32:47.153Z,-5.07
2018-03-02T00:33:47.085Z,-5.12
2018-03-02T00:34:47.023Z,-5.11
2018-03-02T00:35:46.957Z,-5.20
2018-03-02T00:36:46.886Z,-5.12
2018-03-02T00:37:46.820Z,-5.16
2018-03-02T00:38:46.756Z,-5.07
2018-03-02T00:39:46.695Z,-5.12
2018-03-02T00:40:46.628Z,-5.16
2018-03-02T00:41:46.553Z,-5.19
2018-03-02T00:42:46.487Z,-5.05
2018-03-02T00:43:46.419Z,-5.08
2018-03-02T00:44:46.358Z,-5.11
2018-03-02T00:45:46.291Z,-5.17
2018-03-02T00:46:46.220Z,-5.14
2018-03-02T00:47:46.156Z,-5.12
2018-03-02T00:48:46.090Z,-5.04
2018-03-02T00:49:46.022Z,-5.07
2018-03-02T00:50:45.953Z,-4.98
2018-03-02T00:51:45.890Z,-5.03
2018-03-02T00:52:45.824Z,-5.19
2018-03-02T00:53:45.754Z,-5.20
2018-03-02T00:54:45.687Z,-5.14
2018-03-02T00:55:45.623Z,-5.19
2018-03-02T00:56:45.557Z,-5.14
2018-03-02T00:57:45.493Z,-5.25
2018-03-02T00:58:45.423Z,-5.22
2018-03-02T00:59:45.356Z,-5.19
2018-03-02T01:00:45.289Z,-5.19
2018-03-02T01:01:45.222Z,-5.19
2018-03-02T01:02:45.158Z,-5.12
2018-03-02T01:03:45.090Z,-5.25
2018-03-02T01:04:45.023Z,-5.23
2018-03-02T01:05:44.955Z,-5.27
2018-03-02T01:06:44.889Z,-5.25
2018-03-02T01:07:44.827Z,-5.26
2018-03-02T01:08:44.758Z,-5.30
2018-03-02T01:09:44.690Z,-5.20
2018-03-02T01:10:44.623Z,-5.20
2018-03-02T01:11:44.557Z,-5.27
2018-03-02T01:12:44.491Z,-5.25
2018-03-02T01:13:44.423Z,-5.20
2018-03-02T01:14:44.356Z,-5.25
2018-03-02T01:15:44.290Z,-5.27
2018-03-02T01:16:44.225Z,-5.35
2018-03-02T01:17:44.158Z,-5.33
2018-03-02T01:18:44.091Z,-5.34
2018-03-02T01:19:44.025Z,-5.37
2018-03-02T01:20:43.959Z,-5.37
2018-03-02T01:21:43.894Z,-5.35
2018-03-02T01:22:43.824Z,-5.31
2018-03-02T01:23:43.759Z,-5.27
2018-03-02T01:24:43.692Z,-5.35
2018-03-02T01:25:43.626Z,-5.34
2018-03-02T01:26:43.560Z,-5.31
2018-03-02T01:27:43.492Z,-5.31
2018-03-02T01:28:43.426Z,-5.33
2018-03-02T01:29:43.358Z,-5.27
2018-03-02T01:30:43.292Z,-5.33
2018-03-02T01:31:43.229Z,-5.34
2018-03-02T01:32:43.161Z,-5.26
2018-03-02T01:33:43.093Z,-5.31
2018-03-02T01:34:43.026Z,-5.40
2018-03-02T01:35:42.960Z,-5.35
2018-03-02T01:36:42.895Z,-5.40
2018-03-02T01:37:42.827Z,-5.43
2018-03-02T01:38:42.762Z,-5.52
2018-03-02T01:39:42.694Z,-5.55
2018-03-02T01:40:42.629Z,-5.43
2018-03-02T01:41:42.559Z,-5.47
2018-03-02T01:42:42.492Z,-5.55
2018-03-02T01:43:42.430Z,-5.56
2018-03-02T01:44:42.360Z,-5.51
2018-03-02T01:45:42.294Z,-5.49
2018-03-02T01:46:42.226Z,-5.61
2018-03-02T01:47:42.166Z,-5.59
2018-03-02T01:48:42.099Z,-5.59
2018-03-02T01:49:42.027Z,-5.49
2018-03-02T01:50:41.962Z,-5.63
2018-03-02T01:51:41.896Z,-5.58
2018-03-02T01:52:41.828Z,-5.49
2018-03-02T01:53:41.762Z,-5.55
2018-03-02T01:54:41.699Z,-5.49
2018-03-02T01:55:41.629Z,-5.56
2018-03-02T01:56:41.561Z,-5.59
2018-03-02T01:57:41.496Z,-5.61
2018-03-02T01:58:41.429Z,-5.63
2018-03-02T01:59:41.361Z,-5.65
2018-03-02T02:00:41.319Z,-5.61
2018-03-02T02:01:41.241Z,-5.69
2018-03-02T02:02:41.168Z,-5.62
2018-03-02T02:03:41.100Z,-5.56
2018-03-02T02:04:41.029Z,-5.63
2018-03-02T02:05:40.964Z,-5.67
2018-03-02T02:06:40.898Z,-5.61
2018-03-02T02:07:40.830Z,-5.61
2018-03-02T02:08:40.764Z,-5.61
2018-03-02T02:09:40.697Z,-5.61
2018-03-02T02:10:40.627Z,-5.63
2018-03-02T02:11:40.563Z,-5.61
2018-03-02T02:12:40.496Z,-5.62
2018-03-02T02:13:40.430Z,-5.63
2018-03-02T02:14:40.362Z,-5.65
2018-03-02T02:15:40.297Z,-5.62
2018-03-02T02:16:40.229Z,-5.65
2018-03-02T02:17:40.163Z,-5.62
2018-03-02T02:18:40.094Z,-5.59
2018-03-02T02:19:40.029Z,-5.61
2018-03-02T02:20:39.965Z,-5.67
2018-03-02T02:21:39.894Z,-5.62
2018-03-02T02:22:39.829Z,-5.70
2018-03-02T02:23:39.762Z,-5.67
2018-03-02T02:24:39.697Z,-5.65
2018-03-02T02:25:39.629Z,-5.67
2018-03-02T02:26:39.566Z,-5.74
2018-03-02T02:27:39.548Z,-5.67
2018-03-02T02:28:39.430Z,-5.63
2018-03-02T02:29:39.361Z,-5.72
2018-03-02T02:30:39.293Z,-5.65
2018-03-02T02:31:39.233Z,-5.62
2018-03-02T02:32:39.163Z,-5.67
2018-03-02T02:33:39.094Z,-5.69
2018-03-02T02:34:39.028Z,-5.76
2018-03-02T02:35:38.963Z,-5.63
2018-03-02T02:36:38.900Z,-5.70
2018-03-02T02:37:38.827Z,-5.69
2018-03-02T02:38:38.761Z,-5.70
2018-03-02T02:39:38.693Z,-5.65
2018-03-02T02:40:38.625Z,-5.65
2018-03-02T02:41:38.558Z,-5.63
2018-03-02T02:42:38.492Z,-5.69
2018-03-02T02:43:38.429Z,-5.70
2018-03-02T02:44:38.363Z,-5.72
2018-03-02T02:45:38.290Z,-5.79
2018-03-02T02:46:38.225Z,-5.69
2018-03-02T02:47:38.159Z,-5.63
2018-03-02T02:48:38.091Z,-5.73
2018-03-02T02:49:38.025Z,-5.76
2018-03-02T02:50:37.963Z,-5.76
2018-03-02T02:51:37.893Z,-5.73
2018-03-02T02:52:37.826Z,-5.67
2018-03-02T02:53:37.756Z,-5.77
2018-03-02T02:54:37.692Z,-5.74
2018-03-02T02:55:37.624Z,-5.72
2018-03-02T02:56:37.556Z,-5.77
2018-03-02T02:57:37.493Z,-5.76
2018-03-02T02:58:37.421Z,-5.80
2018-03-02T02:59:37.356Z,-5.73
2018-03-02T03:00:37.289Z,-5.82
2018-03-02T03:01:37.223Z,-5.72
2018-03-02T03:02:37.157Z,-5.77
2018-03-02T03:03:37.089Z,-5.77
2018-03-02T03:04:37.022Z,-5.80
2018-03-02T03:05:36.958Z,-5.76
2018-03-02T03:06:36.887Z,-5.80
2018-03-02T03:07:36.821Z,-5.73
2018-03-02T03:08:36.755Z,-5.76
2018-03-02T03:09:36.687Z,-5.80
2018-03-02T03:10:36.619Z,-5.76
2018-03-02T03:11:36.553Z,-5.82
2018-03-02T03:12:36.484Z,-5.80
2018-03-02T03:13:36.421Z,-5.77
2018-03-02T03:14:36.353Z,-5.79
2018-03-02T03:15:36.289Z,-5.79
2018-03-02T03:16:36.219Z,-5.82
2018-03-02T03:17:36.149Z,-5.79
2018-03-02T03:18:36.084Z,-5.80
2018-03-02T03:19:36.019Z,-5.79
2018-03-02T03:20:35.954Z,-5.82
2018-03-02T03:21:35.885Z,-5.79
2018-03-02T03:22:35.817Z,-5.83
2018-03-02T03:23:35.752Z,-5.84
2018-03-02T03:24:35.684Z,-5.83
2018-03-02T03:25:35.614Z,-6.00
2018-03-02T03:26:35.553Z,-5.91
2018-03-02T03:27:35.480Z,-5.88
2018-03-02T03:28:35.416Z,-5.95
2018-03-02T03:29:35.346Z,-5.95
2018-03-02T03:30:35.282Z,-5.94
2018-03-02T03:31:35.217Z,-5.92
2018-03-02T03:32:35.150Z,-5.94
2018-03-02T03:33:35.082Z,-5.94
2018-03-02T03:34:35.010Z,-5.95
2018-03-02T03:35:34.957Z,-5.94
2018-03-02T03:36:34.877Z,-5.94
2018-03-02T03:37:34.812Z,-5.94
2018-03-02T03:38:34.748Z,-5.95
2018-03-02T03:39:34.710Z,-5.95
2018-03-02T03:40:34.619Z,-5.92
2018-03-02T03:41:34.543Z,-5.90
2018-03-02T03:42:34.477Z,-5.95
2018-03-02T03:43:34.451Z,-5.87
2018-03-02T03:44:34.341Z,-5.94
2018-03-02T03:45:34.268Z,-6.00
2018-03-02T03:46:34.210Z,-5.94
2018-03-02T03:47:34.140Z,-5.97
2018-03-02T03:48:34.075Z,-5.95
2018-03-02T03:49:34.011Z,-5.97
2018-03-02T03:50:33.939Z,-5.94
2018-03-02T03:51:33.871Z,-5.95
2018-03-02T03:52:33.806Z,-5.94
2018-03-02T03:53:33.736Z,-5.90
2018-03-02T03:54:33.673Z,-6.00
2018-03-02T03:55:33.603Z,-5.95
2018-03-02T03:56:33.537Z,-6.06
2018-03-02T03:57:33.470Z,-5.95
2018-03-02T03:58:33.404Z,-6.05
2018-03-02T03:59:33.336Z,-6.06
2018-03-02T04:00:33.271Z,-6.05
2018-03-02T04:01:33.202Z,-6.11
2018-03-02T04:02:33.134Z,-6.11
2018-03-02T04:03:33.066Z,-6.05
2018-03-02T04:04:33.006Z,-6.02
2018-03-02T04:05:32.933Z,-6.02
2018-03-02T04:06:32.866Z,-6.08
2018-03-02T04:07:32.800Z,-6.00
2018-03-02T04:08:32.732Z,-6.05
2018-03-02T04:09:32.668Z,-6.01
2018-03-02T04:10:32.598Z,-6.00
2018-03-02T04:11:32.532Z,-6.01
2018-03-02T04:12:32.470Z,-6.09
2018-03-02T04:13:32.396Z,-6.00
2018-03-02T04:14:32.329Z,-5.98
2018-03-02T04:15:32.261Z,-6.05
2018-03-02T04:16:32.194Z,-6.06
2018-03-02T04:17:32.126Z,-6.06
2018-03-02T04:18:32.060Z,-6.02
2018-03-02T04:19:31.995Z,-6.08
2018-03-02T04:20:31.926Z,-6.09
2018-03-02T04:21:31.859Z,-6.01
2018-03-02T04:22:31.789Z,-6.05
2018-03-02T04:23:31.725Z,-6.02
2018-03-02T04:24:31.657Z,-6.09
2018-03-02T04:25:31.590Z,-6.08
2018-03-02T04:26:31.523Z,-6.11
2018-03-02T04:27:31.455Z,-6.12
2018-03-02T04:28:31.387Z,-6.11
2018-03-02T04:29:31.318Z,-6.05
2018-03-02T04:30:31.254Z,-6.01
2018-03-02T04:31:31.188Z,-6.06
2018-03-02T04:32:31.121Z,-6.06
2018-03-02T04:33:31.080Z,-6.09
2018-03-02T04:34:30.982Z,-6.12
2018-03-02T04:35:30.916Z,-6.16
2018-03-02T04:36:30.850Z,-6.16
2018-03-02T04:37:30.786Z,-6.19
2018-03-02T04:38:30.713Z,-6.13
2018-03-02T04:39:30.645Z,-6.09
2018-03-02T04:40:30.579Z,-6.05
2018-03-02T04:41:30.607Z,-6.12
2018-03-02T04:42:30.444Z,-6.11
2018-03-02T04:43:30.410Z,-6.18
2018-03-02T04:44:30.308Z,-6.16
2018-03-02T04:45:30.240Z,-6.16
2018-03-02T04:46:30.174Z,-6.21
2018-03-02T04:47:30.106Z,-6.15
2018-03-02T04:48:30.039Z,-6.21
2018-03-02T04:49:29.971Z,-6.23
2018-03-02T04:50:29.924Z,-6.19
2018-03-02T04:51:29.836Z,-6.11
2018-03-02T04:52:29.771Z,-6.13
2018-03-02T04:53:29.703Z,-6.12
2018-03-02T04:54:29.641Z,-6.11
2018-03-02T04:55:29.568Z,-6.13
2018-03-02T04:56:29.595Z,-6.21
2018-03-02T04:57:29.434Z,-6.16
2018-03-02T04:58:29.364Z,-6.29
2018-03-02T04:59:29.297Z,-6.29
2018-03-02T05:00:29.232Z,-6.30
2018-03-02T05:01:29.162Z,-6.29
2018-03-02T05:02:29.094Z,-6.33
2018-03-02T05:03:29.027Z,-6.23
2018-03-02T05:04:28.963Z,-6.26
2018-03-02T05:05:28.895Z,-6.27
2018-03-02T05:06:28.826Z,-6.26
2018-03-02T05:07:28.759Z,-6.37
2018-03-02T05:08:28.691Z,-6.19
2018-03-02T05:09:28.623Z,-6.37
2018-03-02T05:10:28.556Z,-6.36
2018-03-02T05:11:28.489Z,-6.36
2018-03-02T05:12:28.420Z,-6.37
2018-03-02T05:13:28.354Z,-6.30
2018-03-02T05:14:28.284Z,-6.33
2018-03-02T05:15:28.219Z,-6.33
2018-03-02T05:16:28.152Z,-6.37
2018-03-02T05:17:28.085Z,-6.34
2018-03-02T05:18:28.016Z,-6.39
2018-03-02T05:19:27.951Z,-6.40
2018-03-02T05:20:27.883Z,-6.44
2018-03-02T05:21:27.813Z,-6.42
2018-03-02T05:22:27.753Z,-6.44
2018-03-02T05:23:27.681Z,-6.39
2018-03-02T05:24:27.626Z,-6.45
2018-03-02T05:25:27.545Z,-6.48
2018-03-02T05:26:27.480Z,-6.47
2018-03-02T05:27:27.410Z,-6.47
2018-03-02T05:28:27.341Z,-6.52
2018-03-02T05:29:27.279Z,-6.39
2018-03-02T05:30:27.206Z,-6.39
2018-03-02T05:31:27.141Z,-6.36
2018-03-02T05:32:27.074Z,-6.42
2018-03-02T05:33:27.005Z,-6.39
2018-03-02T05:34:26.937Z,-6.34
2018-03-02T05:35:26.874Z,-6.44
2018-03-02T05:36:26.804Z,-6.45
2018-03-02T05:37:26.737Z,-6.51
2018-03-02T05:38:26.667Z,-6.42
2018-03-02T05:39:26.600Z,-6.45
2018-03-02T05:40:26.533Z,-6.48
2018-03-02T05:41:26.463Z,-6.44
2018-03-02T05:42:26.397Z,-6.48
2018-03-02T05:43:26.331Z,-6.51
2018-03-02T05:44:26.268Z,-6.58
2018-03-02T05:45:26.195Z,-6.54
2018-03-02T05:46:26.132Z,-6.50
2018-03-02T05:47:26.060Z,-6.48
2018-03-02T05:48:25.992Z,-6.58
2018-03-02T05:49:25.960Z,-6.55
2018-03-02T05:50:25.857Z,-6.54
2018-03-02T05:51:25.792Z,-6.61
2018-03-02T05:52:25.723Z,-6.55
2018-03-02T05:53:25.656Z,-6.48
2018-03-02T05:54:25.588Z,-6.51
2018-03-02T05:55:25.522Z,-6.55
2018-03-02T05:56:25.453Z,-6.59
2018-03-02T05:57:25.384Z,-6.64
2018-03-02T05:58:25.318Z,-6.51
2018-03-02T05:59:25.258Z,-6.55
2018-03-02T06:00:25.183Z,-6.51
2018-03-02T06:01:25.114Z,-6.63
2018-03-02T06:02:25.048Z,-6.55
2018-03-02T06:03:24.980Z,-6.50
2018-03-02T06:04:24.912Z,-6.51
2018-03-02T06:05:24.844Z,-6.58
2018-03-02T06:06:24.778Z,-6.52
2018-03-02T06:07:24.710Z,-6.61
2018-03-02T06:08:24.644Z,-6.59
2018-03-02T06:09:24.573Z,-6.63
2018-03-02T06:10:24.506Z,-6.50
2018-03-02T06:11:24.442Z,-6.51
2018-03-02T06:12:24.376Z,-6.61
2018-03-02T06:13:24.304Z,-6.61
2018-03-02T06:14:24.239Z,-6.55
2018-03-02T06:15:24.173Z,-6.58
2018-03-02T06:16:24.104Z,-6.61
2018-03-02T06:17:24.033Z,-6.63
2018-03-02T06:18:23.966Z,-6.55
2018-03-02T06:19:23.898Z,-6.61
2018-03-02T06:20:23.834Z,-6.59
2018-03-02T06:21:23.764Z,-6.73
2018-03-02T06:22:23.697Z,-6.61
2018-03-02T06:23:23.628Z,-6.63
2018-03-02T06:24:23.562Z,-6.59
2018-03-02T06:25:23.494Z,-6.63
2018-03-02T06:26:23.430Z,-6.63
2018-03-02T06:27:23.358Z,-6.58
2018-03-02T06:28:23.290Z,-6.50
2018-03-02T06:29:23.224Z,-6.63
2018-03-02T06:30:23.155Z,-6.47
2018-03-02T06:31:23.088Z,-6.52
2018-03-02T06:32:23.024Z,-6.58
2018-03-02T06:33:22.951Z,-6.47
2018-03-02T06:34:22.884Z,-6.47
2018-03-02T06:35:22.818Z,-6.44
2018-03-02T06:36:22.748Z,-6.33
2018-03-02T06:37:22.680Z,-6.34
2018-03-02T06:38:22.660Z,-6.36
2018-03-02T06:39:22.547Z,-6.37
2018-03-02T06:40:22.477Z,-6.37
2018-03-02T06:41:22.410Z,-6.24
2018-03-02T06:42:22.342Z,-6.37
2018-03-02T06:43:22.276Z,-6.34
2018-03-02T06:44:22.209Z,-6.36
2018-03-02T06:45:22.139Z,-6.37
2018-03-02T06:46:22.075Z,-6.37
2018-03-02T06:47:22.010Z,-6.36
2018-03-02T06:48:21.937Z,-6.39
2018-03-02T06:49:21.874Z,-6.34
2018-03-02T06:50:21.801Z,-6.34
2018-03-02T06:51:21.734Z,-6.44
2018-03-02T06:52:21.668Z,-6.39
2018-03-02T06:53:21.601Z,-6.34
2018-03-02T06:54:21.530Z,-6.18
2018-03-02T06:55:21.467Z,-6.27
2018-03-02T06:56:21.398Z,-6.23
2018-03-02T06:57:21.329Z,-6.23
2018-03-02T06:58:21.262Z,-6.24
2018-03-02T06:59:21.196Z,-6.21
2018-03-02T07:00:21.127Z,-6.30
2018-03-02T07:01:21.061Z,-6.18
2018-03-02T07:02:20.994Z,-6.19
2018-03-02T07:03:20.929Z,-6.13
2018-03-02T07:04:20.858Z,-6.09
2018-03-02T07:05:20.790Z,-6.06
2018-03-02T07:06:20.723Z,-6.08
2018-03-02T07:07:20.657Z,-6.12
2018-03-02T07:08:20.590Z,-6.06
2018-03-02T07:09:20.521Z,-6.19
2018-03-02T07:10:20.470Z,-6.09
2018-03-02T07:11:20.385Z,-6.05
2018-03-02T07:12:20.320Z,-6.02
2018-03-02T07:13:20.252Z,-5.92
2018-03-02T07:14:20.186Z,-5.95
2018-03-02T07:15:20.117Z,-5.84
2018-03-02T07:16:20.049Z,-5.77
2018-03-02T07:17:19.984Z,-5.83
2018-03-02T07:18:19.914Z,-5.94
2018-03-02T07:19:19.846Z,-5.98
2018-03-02T07:20:19.786Z,-5.84
2018-03-02T07:21:19.718Z,-5.88
2018-03-02T07:22:19.649Z,-5.79
2018-03-02T07:23:19.579Z,-5.74
2018-03-02T07:24:19.532Z,-5.69
2018-03-02T07:25:19.445Z,-5.61
2018-03-02T07:26:19.378Z,-5.69
2018-03-02T07:27:19.312Z,-5.69
2018-03-02T07:28:19.247Z,-5.73
2018-03-02T07:29:19.179Z,-5.73
2018-03-02T07:30:19.110Z,-5.69
2018-03-02T07:31:19.044Z,-5.73
2018-03-02T07:32:18.978Z,-5.83
2018-03-02T07:33:18.909Z,-5.79
2018-03-02T07:34:18.843Z,-5.79
2018-03-02T07:35:18.774Z,-5.84
2018-03-02T07:36:18.710Z,-5.77
2018-03-02T07:37:18.641Z,-5.82
2018-03-02T07:38:18.578Z,-5.80
2018-03-02T07:39:18.508Z,-5.74
2018-03-02T07:40:18.445Z,-5.63
2018-03-02T07:41:18.375Z,-5.61
2018-03-02T07:42:18.309Z,-5.52
2018-03-02T07:43:18.240Z,-5.54
2018-03-02T07:44:18.187Z,-5.49
2018-03-02T07:45:18.098Z,-5.44
2018-03-02T07:46:18.041Z,-5.47
2018-03-02T07:47:17.972Z,-5.55
2018-03-02T07:48:17.908Z,-5.49
2018-03-02T07:49:17.838Z,-5.44
2018-03-02T07:50:17.773Z,-5.44
2018-03-02T07:51:17.706Z,-5.33
2018-03-02T07:52:17.642Z,-5.25
2018-03-02T07:53:17.573Z,-5.16
2018-03-02T07:54:17.506Z,-5.30
2018-03-02T07:55:17.444Z,-5.27
2018-03-02T07:56:17.373Z,-5.30
2018-03-02T07:57:17.311Z,-5.27
2018-03-02T07:58:17.244Z,-5.22
2018-03-02T07:59:17.174Z,-5.20
2018-03-02T08:00:17.108Z,-5.30
2018-03-02T08:01:17.044Z,-5.33
2018-03-02T08:02:16.973Z,-5.23
2018-03-02T08:03:16.927Z,-5.33
2018-03-02T08:04:16.898Z,-5.45
2018-03-02T08:05:16.772Z,-5.27
2018-03-02T08:06:16.707Z,-5.38
2018-03-02T08:07:16.643Z,-5.40
2018-03-02T08:08:16.569Z,-5.30
2018-03-02T08:09:16.509Z,-5.20
2018-03-02T08:10:16.447Z,-5.19
2018-03-02T08:11:16.375Z,-5.08
2018-03-02T08:12:16.307Z,-5.08
2018-03-02T08:13:16.245Z,-5.17
2018-03-02T08:14:16.227Z,-5.17
2018-03-02T08:15:16.108Z,-5.26
2018-03-02T08:16:16.046Z,-5.14
2018-03-02T08:17:15.978Z,-5.14
2018-03-02T08:18:15.907Z,-5.05
2018-03-02T08:19:15.846Z,-5.25
2018-03-02T08:20:15.782Z,-5.12
2018-03-02T08:21:15.710Z,-5.16
2018-03-02T08:22:15.645Z,-5.12
2018-03-02T08:23:15.576Z,-4.95
2018-03-02T08:24:15.512Z,-5.05
2018-03-02T08:25:15.444Z,-5.07
2018-03-02T08:26:15.376Z,-5.16
2018-03-02T08:27:15.314Z,-5.14
2018-03-02T08:28:15.246Z,-5.07
2018-03-02T08:29:15.178Z,-5.08
2018-03-02T08:30:15.110Z,-5.04
2018-03-02T08:31:15.046Z,-4.97
2018-03-02T08:32:14.980Z,-4.98
2018-03-02T08:33:14.914Z,-4.89
2018-03-02T08:34:14.846Z,-4.85
2018-03-02T08:35:14.781Z,-4.73
2018-03-02T08:36:14.718Z,-4.75
2018-03-02T08:37:14.646Z,-4.79
2018-03-02T08:38:14.586Z,-4.86
2018-03-02T08:39:14.515Z,-4.97
2018-03-02T08:40:14.449Z,-4.94
2018-03-02T08:41:14.386Z,-4.89
2018-03-02T08:42:14.315Z,-4.86
2018-03-02T08:43:14.252Z,-4.91
2018-03-02T08:44:14.186Z,-4.89
2018-03-02T08:45:14.116Z,-4.79
2018-03-02T08:46:14.055Z,-4.80
2018-03-02T08:47:13.988Z,-4.68
2018-03-02T08:48:13.921Z,-4.57
2018-03-02T08:49:13.853Z,-4.40
2018-03-02T08:50:13.849Z,-4.30
2018-03-02T08:51:13.721Z,-4.44
2018-03-02T08:52:13.659Z,-4.61
2018-03-02T08:53:13.589Z,-4.61
2018-03-02T08:54:13.525Z,-4.58
2018-03-02T08:55:13.462Z,-4.48
2018-03-02T08:56:13.393Z,-4.46
2018-03-02T08:57:13.324Z,-4.47
2018-03-02T08:58:13.262Z,-4.54
2018-03-02T08:59:13.205Z,-4.59
2018-03-02T09:00:13.131Z,-4.46
2018-03-02T09:01:13.067Z,-4.40
2018-03-02T09:02:12.998Z,-4.47
2018-03-02T09:03:12.932Z,-4.44
2018-03-02T09:04:12.866Z,-4.58
2018-03-02T09:05:12.797Z,-4.48
2018-03-02T09:06:12.732Z,-4.30
2018-03-02T09:07:12.668Z,-4.37
2018-03-02T09:08:12.605Z,-4.29
2018-03-02T09:09:12.533Z,-4.33
2018-03-02T09:10:12.469Z,-4.26
2018-03-02T09:11:12.405Z,-4.25
2018-03-02T09:12:12.337Z,-4.07
2018-03-02T09:13:12.272Z,-4.05
2018-03-02T09:14:12.206Z,-3.89
2018-03-02T09:15:12.140Z,-3.93
2018-03-02T09:16:12.073Z,-3.98
2018-03-02T09:17:12.010Z,-4.14
2018-03-02T09:18:11.943Z,-4.11
2018-03-02T09:19:11.878Z,-4.14
2018-03-02T09:20:11.812Z,-3.96
2018-03-02T09:21:11.750Z,-3.91
2018-03-02T09:22:11.684Z,-3.89
2018-03-02T09:23:11.620Z,-3.72
2018-03-02T09:24:11.548Z,-3.65
2018-03-02T09:25:11.483Z,-3.51
2018-03-02T09:26:11.420Z,-3.29
2018-03-02T09:27:11.355Z,-3.38
2018-03-02T09:28:11.284Z,-3.39
2018-03-02T09:29:11.221Z,-3.38
2018-03-02T09:30:11.179Z,-3.31
2018-03-02T09:31:11.094Z,-3.33
2018-03-02T09:32:11.027Z,-3.36
2018-03-02T09:33:10.959Z,-3.29
2018-03-02T09:34:10.899Z,-3.28
2018-03-02T09:35:10.834Z,-3.17
2018-03-02T09:36:10.764Z,-3.20
2018-03-02T09:37:10.690Z,-3.15
2018-03-02T09:38:10.634Z,-3.07
2018-03-02T09:39:10.574Z,-2.92
2018-03-02T09:40:10.510Z,-3.18
2018-03-02T09:41:10.445Z,-3.28
2018-03-02T09:42:10.375Z,-3.39
2018-03-02T09:43:10.311Z,-3.33
2018-03-02T09:44:10.252Z,-3.32
2018-03-02T09:45:10.181Z,-3.11
2018-03-02T09:46:10.116Z,-3.05
2018-03-02T09:47:10.053Z,-2.93
2018-03-02T09:48:09.988Z,-3.07
2018-03-02T09:49:09.921Z,-3.07
2018-03-02T09:50:09.856Z,-2.99
2018-03-02T09:51:09.792Z,-2.78
2018-03-02T09:52:09.728Z,-2.56
2018-03-02T09:53:09.662Z,-2.51
2018-03-02T09:54:09.600Z,-2.53
2018-03-02T09:55:09.536Z,-2.48
2018-03-02T09:56:09.473Z,-2.36
2018-03-02T09:57:09.416Z,-2.23
2018-03-02T09:58:09.346Z,-2.45
2018-03-02T09:59:09.278Z,-2.45
2018-03-02T10:00:09.214Z,-2.39
2018-03-02T10:01:09.153Z,-2.43
2018-03-02T10:02:09.091Z,-2.53
2018-03-02T10:03:09.022Z,-2.53
2018-03-02T10:04:08.958Z,-2.60
2018-03-02T10:05:08.893Z,-2.68
2018-03-02T10:06:08.828Z,-2.57
2018-03-02T10:07:08.770Z,-2.38
2018-03-02T10:08:08.702Z,-2.35
2018-03-02T10:09:08.641Z,-2.20
2018-03-02T10:10:08.574Z,-2.05
2018-03-02T10:11:08.511Z,-1.88
2018-03-02T10:12:08.448Z,-1.84
2018-03-02T10:13:08.383Z,-1.85
2018-03-02T10:14:08.326Z,-1.82
2018-03-02T10:15:08.262Z,-1.85
2018-03-02T10:16:08.195Z,-1.84
2018-03-02T10:17:08.130Z,-2.20
2018-03-02T10:18:08.085Z,-2.13
2018-03-02T10:19:08.007Z,-2.18
2018-03-02T10:20:07.942Z,-2.26
2018-03-02T10:21:07.878Z,-2.32
2018-03-02T10:22:07.827Z,-2.20
2018-03-02T10:23:07.753Z,-2.26
2018-03-02T10:24:07.690Z,-2.02
2018-03-02T10:25:07.628Z,-2.17
2018-03-02T10:26:07.564Z,-2.36
2018-03-02T10:27:07.501Z,-2.33
2018-03-02T10:28:07.442Z,-2.42
2018-03-02T10:29:07.374Z,-2.05
2018-03-02T10:30:07.312Z,-1.80
2018-03-02T10:31:07.250Z,-1.66
2018-03-02T10:32:07.187Z,-1.96
2018-03-02T10:33:07.124Z,-1.74
2018-03-02T10:34:07.061Z,-1.84
2018-03-02T10:35:06.998Z,-1.90
2018-03-02T10:36:06.935Z,-1.82
2018-03-02T10:37:06.871Z,-1.62
2018-03-02T10:38:06.808Z,-1.59
2018-03-02T10:39:06.748Z,-1.42
2018-03-02T10:40:06.685Z,-1.85
2018-03-02T10:41:06.625Z,-2.26
2018-03-02T10:42:06.560Z,-2.17
2018-03-02T10:43:06.496Z,-1.82
2018-03-02T10:44:06.436Z,-1.80
2018-03-02T10:45:06.373Z,-1.69
2018-03-02T10:46:06.309Z,-1.70
2018-03-02T10:47:06.248Z,-1.60
2018-03-02T10:48:06.186Z,-1.53
2018-03-02T10:49:06.122Z,-1.74
2018-03-02T10:50:06.058Z,-1.67
2018-03-02T10:51:05.996Z,-1.77
2018-03-02T10:52:05.933Z,-1.59
2018-03-02T10:53:05.873Z,-1.87
2018-03-02T10:54:05.825Z,-1.69
2018-03-02T10:55:05.747Z,-1.84
2018-03-02T10:56:05.685Z,-1.63
2018-03-02T10:57:05.623Z,-1.45
2018-03-02T10:58:05.562Z,-1.30
2018-03-02T10:59:05.497Z,-1.17
2018-03-02T11:00:05.434Z,-1.03
2018-03-02T11:01:05.369Z,-1.42
2018-03-02T11:02:05.307Z,-1.39
2018-03-02T11:03:05.245Z,-1.09
2018-03-02T11:04:05.183Z,-0.77
2018-03-02T11:05:05.119Z,-0.62
2018-03-02T11:06:05.056Z,-1.35
2018-03-02T11:07:04.995Z,-1.38
2018-03-02T11:08:04.933Z,-1.00
2018-03-02T11:09:04.870Z,-1.13
2018-03-02T11:10:04.808Z,-1.17
2018-03-02T11:11:04.745Z,-1.17
2018-03-02T11:12:04.683Z,-1.03
2018-03-02T11:13:04.622Z,-0.62
2018-03-02T11:14:04.561Z,-0.47
2018-03-02T11:15:04.495Z,-0.42
2018-03-02T11:16:04.436Z,-0.89
2018-03-02T11:17:04.370Z,-1.02
2018-03-02T11:18:04.309Z,-0.95
2018-03-02T11:19:04.253Z,-1.25
2018-03-02T11:20:04.191Z,-1.24
2018-03-02T11:21:04.126Z,-1.63
2018-03-02T11:22:04.061Z,-1.80
2018-03-02T11:23:03.997Z,-1.59
2018-03-02T11:24:03.935Z,-1.95
2018-03-02T11:25:03.873Z,-1.80
2018-03-02T11:26:03.811Z,-1.80
2018-03-02T11:27:03.750Z,-1.66
2018-03-02T11:28:03.688Z,-1.60
2018-03-02T11:29:03.628Z,-1.81
2018-03-02T11:30:03.562Z,-1.85
2018-03-02T11:31:03.500Z,-1.62
2018-03-02T11:32:03.438Z,-1.42
2018-03-02T11:33:03.374Z,-1.31
2018-03-02T11:34:03.314Z,-1.43
2018-03-02T11:35:03.250Z,-1.31
2018-03-02T11:36:03.191Z,-1.23
2018-03-02T11:37:03.130Z,-1.13
2018-03-02T11:38:03.062Z,-1.06
2018-03-02T11:39:03.000Z,-1.20
2018-03-02T11:40:02.937Z,-1.10
2018-03-02T11:41:02.875Z,-1.25
2018-03-02T11:42:02.821Z,-1.31
2018-03-02T11:43:02.748Z,-1.38
2018-03-02T11:44:02.686Z,-1.41
2018-03-02T11:45:02.621Z,-1.36
2018-03-02T11:46:02.562Z,-1.17
2018-03-02T11:47:02.545Z,-1.07
2018-03-02T11:48:02.434Z,-1.10
2018-03-02T11:49:02.371Z,-1.09
2018-03-02T11:50:02.310Z,-1.00
2018-03-02T11:51:02.248Z,-0.94
2018-03-02T11:52:02.185Z,-0.89
2018-03-02T11:53:02.125Z,-1.03
2018-03-02T11:54:02.057Z,-1.06
2018-03-02T11:55:01.995Z,-0.97
2018-03-02T11:56:01.932Z,-1.02
2018-03-02T11:57:01.869Z,-1.10
2018-03-02T11:58:01.806Z,-1.09
2018-03-02T11:59:01.744Z,-1.12
2018-03-02T12:00:01.683Z,-1.17
2018-03-02T12:01:01.619Z,-1.17
2018-03-02T12:02:01.557Z,-1.23
2018-03-02T12:03:01.493Z,-1.07
2018-03-02T12:04:01.431Z,-1.15
2018-03-02T12:05:01.366Z,-1.25
2018-03-02T12:06:01.304Z,-1.02
2018-03-02T12:07:01.242Z,-1.09
2018-03-02T12:08:01.179Z,-1.27
2018-03-02T12:09:01.114Z,-1.09
2018-03-02T12:10:01.054Z,-1.10
2018-03-02T12:11:00.996Z,-0.99
2018-03-02T12:12:00.927Z,-0.99
2018-03-02T12:13:00.862Z,-1.13
2018-03-02T12:14:00.800Z,-1.00
2018-03-02T12:15:00.738Z,-1.00
2018-03-02T12:16:00.675Z,-0.87
2018-03-02T12:17:00.613Z,-0.91
2018-03-02T12:18:00.550Z,-1.00
2018-03-02T12:19:00.486Z,-1.00
2018-03-02T12:20:00.423Z,-1.00
2018-03-02T12:21:00.359Z,-0.95
2018-03-02T12:22:00.295Z,-1.02
2018-03-02T12:23:00.236Z,-1.07
2018-03-02T12:24:00.172Z,-1.05
2018-03-02T12:25:00.105Z,-1.03
2018-03-02T12:26:00.042Z,-0.99
2018-03-02T12:26:59.980Z,-1.03
2018-03-02T12:27:59.917Z,-0.87
2018-03-02T12:28:59.857Z,-0.99
2018-03-02T12:29:59.793Z,-0.89
2018-03-02T12:30:59.780Z,-0.91
2018-03-02T12:31:59.663Z,-0.89
2018-03-02T12:32:59.599Z,-0.87
2018-03-02T12:33:59.535Z,-0.83
2018-03-02T12:34:59.477Z,-0.83
2018-03-02T12:35:59.409Z,-0.83
2018-03-02T12:36:59.347Z,-0.87
2018-03-02T12:37:59.282Z,-0.80
2018-03-02T12:38:59.219Z,-0.87
2018-03-02T12:39:59.168Z,-0.86
2018-03-02T12:40:59.098Z,-0.70
2018-03-02T12:41:59.040Z,-0.80
2018-03-02T12:42:58.970Z,-0.70
2018-03-02T12:43:58.902Z,-0.86
2018-03-02T12:44:58.841Z,-0.86
2018-03-02T12:45:58.776Z,-0.75
2018-03-02T12:46:58.712Z,-0.86
2018-03-02T12:47:58.649Z,-0.84
2018-03-02T12:48:58.586Z,-0.68
2018-03-02T12:49:58.523Z,-0.92
2018-03-02T12:50:58.467Z,-0.97
2018-03-02T12:51:58.397Z,-0.92